createdAt,value
2023-01-09T00:02:26.899Z,1.27
2023-01-09T00:04:55.062Z,1.10
2023-01-09T00:07:25.517Z,1.33
2023-01-09T00:09:53.575Z,1.00
2023-01-09T00:12:21.719Z,1.20
2023-01-09T00:14:49.745Z,1.27
2023-01-09T00:17:17.890Z,0.98
2023-01-09T00:19:46.031Z,0.95
2023-01-09T00:22:14.127Z,1.05
2023-01-09T00:24:44.641Z,1.05
2023-01-09T00:27:14.360Z,0.60
2023-01-09T00:29:45.956Z,1.10
2023-01-09T00:32:14.423Z,0.90
2023-01-09T00:34:44.072Z,0.70
2023-01-09T00:37:13.220Z,0.80
2023-01-09T00:39:42.603Z,0.68
2023-01-09T00:42:16.071Z,0.77
2023-01-09T00:44:47.850Z,0.80
2023-01-09T00:47:22.253Z,0.60
2023-01-09T00:49:52.553Z,0.80
2023-01-09T00:52:21.526Z,0.77
2023-01-09T00:54:50.279Z,0.73
2023-01-09T00:57:19.846Z,0.60
2023-01-09T00:59:48.388Z,0.80
2023-01-09T01:02:16.662Z,0.70
2023-01-09T01:05:02.194Z,0.73
2023-01-09T01:07:43.369Z,0.80
2023-01-09T01:10:13.977Z,0.55
2023-01-09T01:12:45.007Z,0.70
2023-01-09T01:15:14.110Z,0.80
2023-01-09T01:17:43.378Z,0.60
2023-01-09T01:20:14.244Z,0.90
2023-01-09T01:22:43.035Z,0.80
2023-01-09T01:25:12.440Z,0.68
2023-01-09T01:27:41.266Z,0.80
2023-01-09T01:30:13.350Z,1.30
2023-01-09T01:32:41.687Z,1.00
2023-01-09T01:35:10.598Z,1.02
2023-01-09T01:37:40.093Z,1.25
2023-01-09T01:40:09.958Z,1.23
2023-01-09T01:42:38.167Z,1.27
2023-01-09T01:45:10.961Z,1.23
2023-01-09T01:47:46.607Z,1.00
2023-01-09T01:50:20.715Z,1.13
2023-01-09T01:52:55.488Z,1.40
2023-01-09T01:55:24.622Z,1.15
2023-01-09T01:57:57.876Z,1.23
2023-01-09T02:00:32.091Z,1.30
2023-01-09T02:03:01.902Z,1.45
2023-01-09T02:05:30.788Z,1.55
2023-01-09T02:07:58.896Z,1.52
2023-01-09T02:10:27.010Z,1.30
2023-01-09T02:12:55.068Z,1.48
2023-01-09T02:15:23.419Z,1.60
2023-01-09T02:18:18.130Z,1.33
2023-01-09T02:20:53.457Z,1.40
2023-01-09T02:23:55.307Z,1.20
2023-01-09T02:26:53.301Z,1.85
2023-01-09T02:30:01.641Z,1.52
2023-01-09T02:32:44.257Z,1.33
2023-01-09T02:35:24.678Z,1.58
2023-01-09T02:38:03.457Z,1.25
2023-01-09T02:40:37.544Z,1.35
2023-01-09T02:43:08.175Z,1.70
2023-01-09T02:45:37.731Z,1.42
2023-01-09T02:48:06.345Z,1.58
2023-01-09T02:50:41.263Z,1.40
2023-01-09T02:53:49.837Z,1.80
2023-01-09T02:56:36.980Z,1.40
2023-01-09T02:59:28.148Z,1.65
2023-01-09T03:02:15.025Z,1.80
2023-01-09T03:04:54.815Z,1.88
2023-01-09T03:07:28.465Z,2.50
2023-01-09T03:10:07.245Z,2.08
2023-01-09T03:12:37.981Z,1.73
2023-01-09T03:15:07.874Z,1.83
2023-01-09T03:17:40.864Z,1.50
2023-01-09T03:20:11.892Z,1.88
2023-01-09T03:22:40.759Z,1.70
2023-01-09T03:25:09.650Z,1.50
2023-01-09T03:27:37.749Z,2.22
2023-01-09T03:30:07.109Z,1.77
2023-01-09T03:32:35.178Z,2.00
2023-01-09T03:35:05.219Z,1.80
2023-01-09T03:37:33.236Z,1.70
2023-01-09T03:40:01.565Z,1.90
2023-01-09T03:42:29.649Z,1.70
2023-01-09T03:44:57.684Z,1.48
2023-01-09T03:47:25.734Z,2.20
2023-01-09T03:49:53.829Z,1.67
2023-01-09T03:52:23.538Z,1.50
2023-01-09T03:54:51.592Z,1.60
2023-01-09T03:57:19.898Z,1.52
2023-01-09T03:59:48.062Z,1.73
2023-01-09T04:02:16.183Z,1.50
2023-01-09T04:04:44.304Z,1.58
2023-01-09T04:07:12.542Z,1.95
2023-01-09T04:09:42.042Z,1.65
2023-01-09T04:12:10.210Z,2.05
2023-01-09T04:14:38.254Z,1.42
2023-01-09T04:17:06.307Z,1.40
2023-01-09T04:19:34.508Z,1.70
2023-01-09T04:22:02.561Z,1.77
2023-01-09T04:24:32.404Z,2.30
2023-01-09T04:27:05.103Z,2.00
2023-01-09T04:29:33.132Z,2.13
2023-01-09T04:32:01.311Z,1.70
2023-01-09T04:34:29.398Z,2.00
2023-01-09T04:36:57.551Z,2.10
2023-01-09T04:39:25.740Z,1.77
2023-01-09T04:41:53.919Z,2.25
2023-01-09T04:44:26.363Z,1.98
2023-01-09T04:46:56.314Z,2.30
2023-01-09T04:49:24.425Z,2.33
2023-01-09T04:51:52.966Z,2.47
2023-01-09T04:54:23.829Z,1.92
2023-01-09T04:56:52.083Z,2.13
2023-01-09T04:59:20.303Z,3.00
2023-01-09T05:01:50.347Z,1.95
2023-01-09T05:04:18.530Z,2.47
2023-01-09T05:06:46.606Z,2.17
2023-01-09T05:09:15.717Z,2.50
2023-01-09T05:11:44.028Z,1.92
2023-01-09T05:14:12.932Z,2.22
2023-01-09T05:16:41.092Z,3.08
2023-01-09T05:19:10.608Z,2.28
2023-01-09T05:21:38.712Z,2.00
2023-01-09T05:24:07.311Z,1.92
2023-01-09T05:26:35.381Z,1.90
2023-01-09T05:29:03.411Z,1.77
2023-01-09T05:31:31.578Z,1.95
2023-01-09T05:34:00.890Z,2.05
2023-01-09T05:36:30.682Z,1.58
2023-01-09T05:39:02.748Z,1.63
2023-01-09T05:41:31.048Z,1.92
2023-01-09T05:43:59.147Z,2.33
2023-01-09T05:46:27.405Z,1.75
2023-01-09T05:48:55.457Z,1.98
2023-01-09T05:51:23.617Z,2.65
2023-01-09T05:53:53.096Z,1.80
2023-01-09T05:56:21.161Z,1.67
2023-01-09T05:58:49.780Z,2.42
2023-01-09T06:01:18.035Z,1.65
2023-01-09T06:03:46.781Z,1.73
2023-01-09T06:06:14.923Z,1.77
2023-01-09T06:08:43.287Z,1.70
2023-01-09T06:11:12.729Z,1.85
2023-01-09T06:13:40.937Z,1.95
2023-01-09T06:16:09.629Z,1.77
2023-01-09T06:18:37.726Z,2.05
2023-01-09T06:21:06.621Z,1.60
2023-01-09T06:23:34.696Z,1.90
2023-01-09T06:26:02.842Z,1.98
2023-01-09T06:28:32.353Z,1.90
2023-01-09T06:31:00.931Z,2.30
2023-01-09T06:33:29.024Z,1.90
2023-01-09T06:35:57.095Z,1.85
2023-01-09T06:38:25.263Z,2.00
2023-01-09T06:40:53.318Z,2.00
2023-01-09T06:43:21.350Z,2.00
2023-01-09T06:45:50.851Z,3.20
2023-01-09T06:48:18.932Z,2.00
2023-01-09T06:50:49.207Z,2.50
2023-01-09T06:53:20.606Z,1.80
2023-01-09T06:55:48.750Z,2.15
2023-01-09T06:58:16.804Z,1.75
2023-01-09T07:00:44.954Z,1.60
2023-01-09T07:03:19.730Z,2.17
2023-01-09T07:05:48.207Z,1.73
2023-01-09T07:08:16.797Z,1.90
2023-01-09T07:10:45.656Z,2.20
2023-01-09T07:13:13.816Z,1.58
2023-01-09T07:15:41.895Z,2.08
2023-01-09T07:18:09.972Z,2.10
2023-01-09T07:20:41.822Z,1.67
2023-01-09T07:23:12.657Z,1.60
2023-01-09T07:25:40.972Z,1.70
2023-01-09T07:28:09.027Z,1.90
2023-01-09T07:30:37.066Z,1.98
2023-01-09T07:33:05.276Z,2.10
2023-01-09T07:35:35.972Z,2.03
2023-01-09T07:38:05.473Z,2.00
2023-01-09T07:40:33.688Z,1.67
2023-01-09T07:43:01.739Z,2.10
2023-01-09T07:45:29.962Z,2.03
2023-01-09T07:47:58.098Z,1.98
2023-01-09T07:50:26.372Z,2.05
2023-01-09T07:52:54.464Z,1.90
2023-01-09T07:55:23.963Z,2.22
2023-01-09T07:57:53.562Z,1.90
2023-01-09T08:00:22.251Z,2.00
2023-01-09T08:02:53.408Z,2.17
2023-01-09T08:05:22.073Z,1.98
2023-01-09T08:07:51.576Z,2.22
2023-01-09T08:10:21.128Z,2.55
2023-01-09T08:12:51.285Z,2.40
2023-01-09T08:15:19.696Z,2.42
2023-01-09T08:17:48.494Z,2.17
2023-01-09T08:20:18.331Z,2.67
2023-01-09T08:22:50.745Z,2.20
2023-01-09T08:25:19.705Z,2.20
2023-01-09T08:27:48.214Z,3.03
2023-01-09T08:30:19.061Z,2.60
2023-01-09T08:32:50.752Z,2.45
2023-01-09T08:35:20.153Z,3.28
2023-01-09T08:37:49.082Z,2.90
2023-01-09T08:40:18.804Z,3.17
2023-01-09T08:43:06.549Z,2.80
2023-01-09T08:45:53.560Z,3.10
2023-01-09T08:48:21.721Z,3.30
2023-01-09T08:50:49.873Z,3.30
2023-01-09T08:53:17.977Z,3.40
2023-01-09T08:55:46.058Z,2.85
2023-01-09T08:58:14.121Z,2.72
2023-01-09T09:00:44.037Z,3.10
2023-01-09T09:03:13.557Z,3.53
2023-01-09T09:05:41.995Z,2.95
2023-01-09T09:08:10.174Z,3.30
2023-01-09T09:10:38.320Z,3.35
2023-01-09T09:13:06.828Z,3.00
2023-01-09T09:15:35.221Z,3.05
2023-01-09T09:18:07.116Z,3.05
2023-01-09T09:20:37.035Z,3.15
2023-01-09T09:23:05.710Z,2.97
2023-01-09T09:25:33.824Z,3.60
2023-01-09T09:28:05.170Z,3.45
2023-01-09T09:30:34.133Z,4.22
2023-01-09T09:33:05.992Z,3.50
2023-01-09T09:35:34.879Z,3.10
2023-01-09T09:38:05.812Z,3.67
2023-01-09T09:40:55.567Z,3.53
2023-01-09T09:44:20.421Z,3.72
2023-01-09T09:46:55.220Z,3.28
2023-01-09T09:49:29.215Z,3.08
2023-01-09T09:52:05.521Z,2.85
2023-01-09T09:54:38.130Z,2.70
2023-01-09T09:59:38.760Z,2.75
2023-01-09T10:02:20.989Z,2.67
2023-01-09T10:04:57.927Z,2.85
2023-01-09T10:07:32.122Z,2.47
2023-01-09T10:10:05.137Z,2.60
2023-01-09T10:12:36.954Z,2.67
2023-01-09T10:15:17.769Z,3.37
2023-01-09T10:18:02.421Z,3.25
2023-01-09T10:20:56.174Z,3.17
2023-01-09T10:23:53.549Z,3.65
2023-01-09T10:26:28.914Z,4.28
2023-01-09T10:29:20.228Z,3.85
2023-01-09T10:32:03.175Z,4.55
2023-01-09T10:37:12.501Z,4.50
2023-01-09T10:39:45.443Z,4.63
2023-01-09T10:42:23.179Z,3.55
2023-01-09T10:44:58.098Z,3.85
2023-01-09T10:47:31.137Z,3.60
2023-01-09T10:50:01.115Z,3.50
2023-01-09T10:52:36.684Z,3.42
2023-01-09T10:55:15.031Z,3.30
2023-01-09T10:57:45.321Z,3.50
2023-01-09T11:00:21.034Z,2.92
2023-01-09T11:02:50.925Z,3.22
2023-01-09T11:05:21.797Z,3.13
2023-01-09T11:07:56.346Z,3.65
2023-01-09T11:10:24.922Z,3.70
2023-01-09T11:13:15.004Z,3.65
2023-01-09T11:15:43.090Z,3.70
2023-01-09T11:18:24.492Z,4.00
2023-01-09T11:20:53.165Z,3.03
2023-01-09T11:23:31.400Z,3.20
2023-01-09T11:26:01.421Z,2.90
2023-01-09T11:28:30.364Z,2.55
2023-01-09T11:31:03.590Z,2.78
2023-01-09T11:33:35.929Z,2.55
2023-01-09T11:36:08.159Z,3.13
2023-01-09T11:38:50.825Z,2.90
2023-01-09T11:41:22.197Z,2.88
2023-01-09T11:43:52.943Z,2.90
2023-01-09T11:46:38.844Z,2.97
2023-01-09T11:49:22.901Z,2.97
2023-01-09T11:52:19.553Z,2.75
2023-01-09T11:54:56.493Z,2.90
2023-01-09T11:57:26.120Z,2.50
2023-01-09T11:59:57.845Z,2.78
2023-01-09T12:02:43.489Z,2.38
2023-01-09T12:05:23.042Z,2.35
2023-01-09T12:08:20.500Z,2.28
2023-01-09T12:11:08.716Z,1.85
2023-01-09T12:13:50.117Z,2.22
2023-01-09T12:16:28.140Z,1.85
2023-01-09T12:19:17.001Z,1.75
2023-01-09T12:21:51.427Z,2.05
2023-01-09T12:24:34.624Z,2.20
2023-01-09T12:30:02.938Z,2.38
2023-01-09T12:32:44.405Z,2.10
2023-01-09T12:35:25.194Z,2.20
2023-01-09T12:38:07.596Z,2.20
2023-01-09T12:40:49.793Z,2.53
2023-01-09T12:43:26.947Z,2.67
2023-01-09T12:46:06.414Z,2.67
2023-01-09T12:48:51.513Z,2.60
2023-01-09T12:51:40.840Z,3.67
2023-01-09T12:54:15.673Z,2.67
2023-01-09T12:56:49.083Z,3.05
2023-01-09T12:59:31.122Z,3.03
2023-01-09T13:02:13.733Z,2.78
2023-01-09T13:04:49.445Z,3.28
2023-01-09T13:07:22.370Z,3.22
2023-01-09T13:09:55.430Z,2.67
2023-01-09T13:12:25.842Z,2.85
2023-01-09T13:15:00.710Z,3.42
2023-01-09T13:17:32.699Z,2.67
2023-01-09T13:20:00.937Z,2.78
2023-01-09T13:22:31.480Z,2.50
2023-01-09T13:25:39.042Z,2.97
2023-01-09T13:28:14.549Z,2.42
2023-01-09T13:31:04.186Z,2.83
2023-01-09T13:33:35.788Z,2.20
2023-01-09T13:36:05.014Z,2.40
2023-01-09T13:38:35.097Z,2.15
2023-01-09T13:41:33.576Z,2.28
2023-01-09T13:44:04.632Z,1.95
2023-01-09T13:46:38.176Z,2.17
2023-01-09T13:49:08.288Z,2.58
2023-01-09T13:51:59.039Z,2.17
2023-01-09T13:55:01.851Z,2.15
2023-01-09T13:57:32.543Z,2.00
2023-01-09T14:00:39.323Z,2.35
2023-01-09T14:03:18.525Z,2.60
2023-01-09T14:06:20.788Z,2.20
2023-01-09T14:08:52.042Z,2.80
2023-01-09T14:11:27.381Z,2.85
2023-01-09T14:14:22.750Z,2.92
2023-01-09T14:16:50.959Z,2.65
2023-01-09T14:19:36.006Z,2.65
2023-01-09T14:22:05.415Z,2.38
2023-01-09T14:24:41.057Z,2.13
2023-01-09T14:27:48.431Z,1.83
2023-01-09T14:30:35.362Z,1.50
2023-01-09T14:33:05.265Z,1.85
2023-01-09T14:35:44.051Z,1.40
2023-01-09T14:38:37.346Z,1.48
2023-01-09T14:41:12.474Z,1.23
2023-01-09T14:44:16.132Z,1.40
2023-01-09T14:46:45.083Z,1.40
2023-01-09T14:49:31.665Z,1.50
2023-01-09T14:52:04.461Z,1.10
2023-01-09T14:54:35.265Z,1.58
2023-01-09T14:57:03.457Z,1.45
2023-01-09T14:59:31.541Z,1.15
2023-01-09T15:02:00.539Z,1.30
2023-01-09T15:04:35.363Z,1.75
2023-01-09T15:07:06.432Z,1.50
2023-01-09T15:09:46.917Z,1.33
2023-01-09T15:12:22.142Z,1.60
2023-01-09T15:14:55.168Z,1.63
2023-01-09T15:17:26.631Z,1.70
2023-01-09T15:19:56.112Z,2.08
2023-01-09T15:22:30.148Z,1.73
2023-01-09T15:24:58.592Z,1.90
2023-01-09T15:27:27.229Z,2.90
2023-01-09T15:29:55.343Z,1.80
2023-01-09T15:32:26.227Z,3.40
2023-01-09T15:34:56.016Z,1.50
2023-01-09T15:37:30.548Z,1.77
2023-01-09T15:40:00.794Z,2.00
2023-01-09T15:42:48.473Z,1.55
2023-01-09T15:45:25.453Z,2.03
2023-01-09T15:48:15.057Z,1.90
2023-01-09T15:50:43.793Z,2.35
2023-01-09T15:53:16.311Z,2.45
2023-01-09T15:55:44.419Z,2.10
2023-01-09T15:58:27.580Z,2.00
2023-01-09T16:00:58.201Z,1.88
2023-01-09T16:03:27.193Z,2.05
2023-01-09T16:06:05.421Z,2.55
2023-01-09T16:08:38.330Z,2.20
2023-01-09T16:11:10.668Z,2.08
2023-01-09T16:13:46.026Z,2.20
2023-01-09T16:16:23.889Z,1.92
2023-01-09T16:18:54.365Z,2.17
2023-01-09T16:21:25.267Z,2.30
2023-01-09T16:23:57.602Z,2.50
2023-01-09T16:26:27.714Z,2.10
2023-01-09T16:28:56.214Z,2.17
2023-01-09T16:31:27.557Z,2.78
2023-01-09T16:33:59.515Z,3.03
2023-01-09T16:36:29.208Z,3.95
2023-01-09T16:39:00.911Z,3.17
2023-01-09T16:41:46.234Z,3.60
2023-01-09T16:44:14.543Z,4.00
2023-01-09T16:46:44.538Z,3.90
2023-01-09T16:49:19.629Z,4.72
2023-01-09T16:51:48.432Z,5.32
2023-01-09T16:54:21.064Z,4.32
2023-01-09T16:59:21.691Z,5.03
2023-01-09T17:01:50.492Z,4.80
2023-01-09T17:04:20.311Z,4.95
2023-01-09T17:06:49.960Z,5.30
2023-01-09T17:09:22.225Z,4.60
2023-01-09T17:11:50.341Z,5.47
2023-01-09T17:14:18.682Z,5.65
2023-01-09T17:16:47.081Z,7.00
2023-01-09T17:19:20.869Z,7.70
2023-01-09T17:21:49.007Z,6.88
2023-01-09T17:24:34.327Z,5.07
2023-01-09T17:27:21.231Z,4.80
2023-01-09T17:29:49.671Z,4.72
2023-01-09T17:32:19.804Z,4.70
2023-01-09T17:34:48.807Z,4.43
2023-01-09T17:37:18.647Z,4.18
2023-01-09T17:39:47.133Z,4.80
2023-01-09T17:42:19.152Z,5.53
2023-01-09T17:44:47.246Z,5.50
2023-01-09T17:47:16.231Z,6.22
2023-01-09T17:49:44.709Z,5.80
2023-01-09T17:52:12.844Z,5.78
2023-01-09T17:54:41.256Z,4.60
2023-01-09T17:57:15.389Z,4.05
2023-01-09T17:59:45.704Z,4.15
2023-01-09T18:02:18.229Z,4.22
2023-01-09T18:04:47.090Z,4.25
2023-01-09T18:07:16.531Z,4.57
2023-01-09T18:09:45.381Z,3.90
2023-01-09T18:12:13.770Z,3.72
2023-01-09T18:14:42.373Z,5.03
2023-01-09T18:17:14.277Z,4.45
2023-01-09T18:19:43.775Z,4.05
2023-01-09T18:22:11.957Z,4.30
2023-01-09T18:24:40.093Z,3.72
2023-01-09T18:27:08.405Z,4.25
2023-01-09T18:29:36.524Z,3.58
2023-01-09T18:32:04.792Z,3.70
2023-01-09T18:34:34.306Z,3.40
2023-01-09T18:37:02.414Z,3.40
2023-01-09T18:39:30.652Z,2.92
2023-01-09T18:41:58.863Z,3.03
2023-01-09T18:44:27.289Z,4.00
2023-01-09T18:46:55.546Z,3.22
2023-01-09T18:49:23.727Z,3.17
2023-01-09T18:51:53.229Z,2.97
2023-01-09T18:54:21.447Z,2.78
2023-01-09T18:56:49.633Z,3.22
2023-01-09T18:59:20.191Z,2.83
2023-01-09T19:01:48.317Z,3.20
2023-01-09T19:04:16.755Z,3.30
2023-01-09T19:06:44.929Z,2.72
2023-01-09T19:09:14.808Z,3.10
2023-01-09T19:11:44.410Z,3.05
2023-01-09T19:14:12.590Z,2.88
2023-01-09T19:16:40.908Z,3.60
2023-01-09T19:19:09.015Z,3.53
2023-01-09T19:21:37.340Z,3.55
2023-01-09T19:24:06.174Z,3.17
2023-01-09T19:26:35.695Z,3.10
2023-01-09T19:29:04.068Z,2.75
2023-01-09T19:31:32.327Z,2.83
2023-01-09T19:34:00.499Z,3.17
2023-01-09T19:36:29.511Z,2.83
2023-01-09T19:38:58.061Z,2.40
2023-01-09T19:41:26.495Z,2.92
2023-01-09T19:43:55.982Z,3.17
2023-01-09T19:46:27.142Z,3.13
2023-01-09T19:48:58.378Z,3.65
2023-01-09T19:51:26.808Z,3.33
2023-01-09T19:53:58.199Z,3.25
2023-01-09T19:56:28.486Z,3.47
2023-01-09T19:58:59.878Z,3.08
2023-01-09T20:01:30.537Z,2.53
2023-01-09T20:04:02.942Z,2.97
2023-01-09T20:06:31.769Z,3.08
2023-01-09T20:09:01.992Z,2.90
2023-01-09T20:11:32.908Z,2.58
2023-01-09T20:14:02.337Z,2.63
2023-01-09T20:16:31.939Z,2.60
2023-01-09T20:19:03.647Z,2.53
2023-01-09T20:21:32.086Z,2.33
2023-01-09T20:24:02.062Z,2.50
2023-01-09T20:26:30.511Z,2.00
2023-01-09T20:28:59.015Z,3.15
2023-01-09T20:31:31.419Z,2.58
2023-01-09T20:34:00.647Z,2.50
2023-01-09T20:36:30.249Z,3.00
2023-01-09T20:39:01.185Z,3.05
2023-01-09T20:41:31.340Z,2.67
2023-01-09T20:44:01.010Z,2.70
2023-01-09T20:46:31.940Z,2.83
2023-01-09T20:49:03.099Z,2.70
2023-01-09T20:51:32.068Z,2.75
2023-01-09T20:54:00.482Z,3.50
2023-01-09T20:56:30.125Z,3.00
2023-01-09T20:58:59.804Z,2.88
2023-01-09T21:01:29.120Z,2.80
2023-01-09T21:03:59.061Z,2.72
2023-01-09T21:06:28.688Z,2.83
2023-01-09T21:08:56.892Z,3.00
2023-01-09T21:11:25.036Z,3.70
2023-01-09T21:13:53.288Z,3.10
2023-01-09T21:16:25.707Z,3.40
2023-01-09T21:21:27.598Z,2.95
2023-01-09T21:24:00.664Z,3.58
2023-01-09T21:26:30.718Z,4.00
2023-01-09T21:29:02.948Z,3.88
2023-01-09T21:31:34.821Z,3.50
2023-01-09T21:34:05.222Z,3.80
2023-01-09T21:36:36.231Z,3.25
2023-01-09T21:39:07.879Z,3.58
2023-01-09T21:41:54.022Z,3.85
2023-01-09T21:44:39.468Z,2.97
2023-01-09T21:47:07.525Z,3.53
2023-01-09T21:49:36.273Z,2.92
2023-01-09T21:52:06.248Z,2.78
2023-01-09T21:54:35.035Z,3.35
2023-01-09T21:57:04.167Z,2.95
2023-01-09T21:59:32.514Z,3.03
2023-01-09T22:02:00.789Z,2.63
2023-01-09T22:04:30.496Z,3.42
2023-01-09T22:06:58.720Z,2.95
2023-01-09T22:09:28.656Z,2.95
2023-01-09T22:11:57.549Z,2.90
2023-01-09T22:14:25.728Z,3.10
2023-01-09T22:16:53.832Z,3.38
2023-01-09T22:19:22.389Z,3.20
2023-01-09T22:21:50.692Z,3.00
2023-01-09T22:24:21.685Z,3.22
2023-01-09T22:26:51.252Z,4.35
2023-01-09T22:29:19.864Z,3.55
2023-01-09T22:31:48.019Z,3.08
2023-01-09T22:34:18.390Z,2.88
2023-01-09T22:36:47.685Z,3.83
2023-01-09T22:39:17.710Z,3.38
2023-01-09T22:41:46.527Z,3.38
2023-01-09T22:44:16.053Z,3.28
2023-01-09T22:46:44.261Z,3.67
2023-01-09T22:49:14.174Z,3.75
2023-01-09T22:51:42.316Z,3.67
2023-01-09T22:54:10.548Z,3.22
2023-01-09T22:56:38.598Z,3.65
2023-01-09T22:59:06.878Z,3.42
2023-01-09T23:01:36.473Z,3.33
2023-01-09T23:04:04.748Z,3.88
2023-01-09T23:06:32.818Z,3.60
2023-01-09T23:09:03.160Z,4.10
2023-01-09T23:11:49.382Z,3.95
2023-01-09T23:14:17.784Z,3.47
2023-01-09T23:16:47.445Z,3.90
2023-01-09T23:19:15.943Z,3.85
2023-01-09T23:21:45.481Z,3.15
2023-01-09T23:24:15.739Z,3.60
2023-01-09T23:26:44.689Z,3.70
2023-01-09T23:29:13.816Z,3.47
2023-01-09T23:31:42.000Z,3.53
2023-01-09T23:34:15.446Z,3.05
2023-01-09T23:36:44.162Z,3.00
2023-01-09T23:39:12.367Z,3.00
2023-01-09T23:41:58.449Z,2.80
2023-01-09T23:44:26.715Z,4.60
2023-01-09T23:46:54.951Z,2.95
2023-01-09T23:49:24.607Z,3.10
2023-01-09T23:51:52.758Z,2.80
2023-01-09T23:54:20.839Z,3.50
2023-01-09T23:56:48.872Z,3.92
2023-01-09T23:59:18.109Z,3.33
